Time;durP1;ratioP1;P1;durP2;ratioP2;P2;SDS_P1;SDS_P2;PMS_P1;PMS_P2;Temp;Humidity;BMP_temperature;BMP_pressure;BME280_temperature;BME280_humidity;BME280_pressure;Samples;Min_cycle;Max_cycle;Signal;HPM_P1;HPM_P2
2023/05/24 00:02:22;;;;;;;0.73;0.73;;;11.20;99.90;;;;;;4388400;32;20113;-69
2023/05/24 00:04:48;;;;;;;0.30;0.30;;;11.20;99.90;;;;;;4383076;32;20501;-68
2023/05/24 00:07:15;;;;;;;0.85;0.68;;;11.10;99.90;;;;;;4373178;32;21409;-68
2023/05/24 00:09:41;;;;;;;0.70;0.70;;;11.10;99.90;;;;;;4387324;32;20090;-68
2023/05/24 00:12:06;;;;;;;0.30;0.30;;;11.10;99.90;;;;;;4381929;32;20087;-68
2023/05/24 00:14:32;;;;;;;0.40;0.40;;;11.00;99.90;;;;;;4373007;32;20259;-68
2023/05/24 00:16:58;;;;;;;2.83;1.30;;;11.00;99.90;;;;;;4386222;32;20109;-68
2023/05/24 00:19:24;;;;;;;0.40;0.40;;;11.10;99.90;;;;;;4385950;32;20087;-68
2023/05/24 00:21:50;;;;;;;0.95;0.93;;;11.00;99.90;;;;;;4384860;32;20625;-69
2023/05/24 00:24:16;;;;;;;0.45;0.45;;;11.00;99.90;;;;;;4385481;32;20136;-68
2023/05/24 00:26:42;;;;;;;0.95;0.88;;;11.00;99.90;;;;;;4373146;32;20483;-69
2023/05/24 00:29:07;;;;;;;3.00;0.50;;;11.00;99.90;;;;;;4370325;32;20079;-68
2023/05/24 00:31:33;;;;;;;0.47;0.47;;;10.90;99.90;;;;;;4381673;32;20075;-68
2023/05/24 00:33:58;;;;;;;0.43;0.43;;;10.90;99.90;;;;;;4386670;32;20074;-67
2023/05/24 00:36:24;;;;;;;2.35;0.47;;;10.80;99.90;;;;;;4385165;32;20062;-68
2023/05/24 00:38:49;;;;;;;0.47;0.47;;;10.80;99.90;;;;;;4372644;32;20817;-68
2023/05/24 00:41:15;;;;;;;0.47;0.47;;;10.80;99.90;;;;;;4384724;32;20129;-69
2023/05/24 00:43:43;;;;;;;0.50;0.50;;;10.80;99.90;;;;;;4386277;32;20443;-68
2023/05/24 00:46:14;;;;;;;12.27;0.62;;;10.80;99.90;;;;;;4386903;32;20420;-68
2023/05/24 00:48:41;;;;;;;0.20;0.20;;;10.90;99.90;;;;;;4372534;32;20542;-68
2023/05/24 00:51:07;;;;;;;2.62;1.67;;;10.80;99.90;;;;;;4372759;32;21630;-68
2023/05/24 00:53:34;;;;;;;1.05;0.75;;;10.80;99.90;;;;;;4353433;32;20106;-68
2023/05/24 00:56:01;;;;;;;0.55;0.40;;;10.80;99.90;;;;;;4371069;32;20153;-68
2023/05/24 00:58:29;;;;;;;4.75;0.70;;;10.80;99.90;;;;;;4385529;32;20078;-68
2023/05/24 01:00:58;;;;;;;11.15;0.62;;;10.80;99.90;;;;;;4384750;32;20070;-67
2023/05/24 01:03:27;;;;;;;0.65;0.65;;;10.80;99.90;;;;;;4371357;32;20906;-68
2023/05/24 01:06:00;;;;;;;0.30;0.30;;;10.80;99.90;;;;;;4385046;32;20108;-68
2023/05/24 01:08:31;;;;;;;0.50;0.50;;;10.80;99.90;;;;;;4369992;32;20178;-68
2023/05/24 01:11:05;;;;;;;0.40;0.40;;;10.90;99.90;;;;;;4387592;32;20069;-68
2023/05/24 01:13:44;;;;;;;0.43;0.43;;;10.90;99.90;;;;;;4383962;32;20314;-68
2023/05/24 01:16:16;;;;;;;0.40;0.40;;;11.00;99.90;;;;;;4373024;32;20102;-66
2023/05/24 01:18:48;;;;;;;0.55;0.55;;;11.00;99.90;;;;;;4370469;32;20833;-68
2023/05/24 01:21:37;;;;;;;0.55;0.30;;;11.10;99.90;;;;;;4383150;32;20518;-69
2023/05/24 01:24:17;;;;;;;1.65;0.50;;;11.00;99.90;;;;;;4385327;32;20078;-68
2023/05/24 01:27:08;;;;;;;8.98;1.10;;;11.00;99.90;;;;;;4385842;32;20106;-69
2023/05/24 01:29:35;;;;;;;0.25;0.25;;;11.10;99.90;;;;;;4384044;32;20514;-68
2023/05/24 01:32:01;;;;;;;0.60;0.60;;;11.10;99.90;;;;;;4373898;32;20086;-67
2023/05/24 01:34:26;;;;;;;5.00;1.08;;;11.20;99.90;;;;;;4385897;32;20097;-68
2023/05/24 01:36:52;;;;;;;3.65;1.10;;;11.10;99.90;;;;;;4385727;32;20077;-67
2023/05/24 01:39:19;;;;;;;0.47;0.47;;;11.20;99.90;;;;;;4384280;32;20164;-67
2023/05/24 01:41:55;;;;;;;2.35;0.85;;;11.20;99.90;;;;;;4386784;32;20093;-67
2023/05/24 01:44:42;;;;;;;1.90;0.82;;;11.20;99.90;;;;;;4384282;32;20126;-68
2023/05/24 01:47:34;;;;;;;2.50;1.75;;;11.20;99.90;;;;;;4369878;32;20534;-67
2023/05/24 01:50:13;;;;;;;0.32;0.32;;;11.10;99.90;;;;;;4372151;32;20099;-69
2023/05/24 01:52:42;;;;;;;2.33;0.50;;;11.10;99.90;;;;;;4371001;32;20928;-67
2023/05/24 01:55:09;;;;;;;0.57;0.57;;;11.20;99.90;;;;;;4384550;32;20071;-68
2023/05/24 01:57:36;;;;;;;3.50;1.20;;;11.10;99.90;;;;;;4386765;32;20104;-67
2023/05/24 02:00:02;;;;;;;0.30;0.30;;;11.20;99.90;;;;;;4382863;32;20173;-67
2023/05/24 02:02:28;;;;;;;0.40;0.40;;;11.10;99.90;;;;;;4385438;32;20077;-68
2023/05/24 02:04:53;;;;;;;1.12;0.50;;;11.10;99.90;;;;;;4384044;32;20412;-68
2023/05/24 02:07:19;;;;;;;6.03;0.55;;;11.10;99.90;;;;;;4386737;32;20443;-67
2023/05/24 02:09:44;;;;;;;1.35;0.50;;;11.00;99.90;;;;;;4383316;32;20094;-68
2023/05/24 02:12:10;;;;;;;1.02;0.88;;;11.10;99.90;;;;;;4387475;32;20083;-68
2023/05/24 02:14:36;;;;;;;0.40;0.40;;;11.20;99.90;;;;;;4384185;32;20070;-67
2023/05/24 02:17:02;;;;;;;0.30;0.30;;;11.20;99.90;;;;;;4387081;32;20095;-67
2023/05/24 02:19:28;;;;;;;6.55;1.15;;;11.20;99.90;;;;;;4381296;32;20136;-68
2023/05/24 02:21:53;;;;;;;0.55;0.55;;;11.20;99.90;;;;;;4386728;32;20085;-67
2023/05/24 02:24:19;;;;;;;0.82;0.82;;;11.10;99.90;;;;;;4384911;32;20517;-67
2023/05/24 02:26:44;;;;;;;7.53;1.67;;;11.20;99.90;;;;;;4387141;32;20113;-68
2023/05/24 02:29:10;;;;;;;0.45;0.45;;;11.10;99.90;;;;;;4385816;32;21219;-68
2023/05/24 02:31:35;;;;;;;2.37;0.50;;;11.10;99.90;;;;;;4387415;32;20070;-68
2023/05/24 02:34:01;;;;;;;1.02;0.80;;;11.00;99.90;;;;;;4384910;32;20343;-68
2023/05/24 02:36:27;;;;;;;0.22;0.22;;;11.00;99.90;;;;;;4368880;32;20106;-67
2023/05/24 02:38:53;;;;;;;0.65;0.65;;;11.10;99.90;;;;;;4384139;32;20073;-68
2023/05/24 02:41:18;;;;;;;2.40;0.70;;;11.00;99.90;;;;;;4387521;32;20081;-68
2023/05/24 02:43:44;;;;;;;9.75;1.50;;;11.10;99.90;;;;;;4386627;32;20074;-68
2023/05/24 02:46:10;;;;;;;6.18;1.05;;;11.10;99.90;;;;;;4381137;32;20070;-68
2023/05/24 02:48:35;;;;;;;0.70;0.70;;;11.20;99.90;;;;;;4383052;32;20098;-67
2023/05/24 02:51:02;;;;;;;0.50;0.50;;;11.10;99.90;;;;;;4384921;32;20710;-68
2023/05/24 02:53:28;;;;;;;0.30;0.30;;;11.10;99.90;;;;;;4385397;32;20503;-68
2023/05/24 02:55:53;;;;;;;0.47;0.47;;;11.00;99.90;;;;;;4384278;32;20091;-67
2023/05/24 02:58:19;;;;;;;2.33;1.33;;;10.90;99.90;;;;;;4386727;32;20082;-67
2023/05/24 03:00:44;;;;;;;4.90;1.17;;;11.00;99.90;;;;;;4383956;32;20467;-68
2023/05/24 03:03:10;;;;;;;0.70;0.70;;;11.00;99.90;;;;;;4384793;32;21241;-68
2023/05/24 03:05:35;;;;;;;0.40;0.40;;;10.90;99.90;;;;;;4383548;32;20086;-68
2023/05/24 03:08:01;;;;;;;0.30;0.30;;;10.90;99.90;;;;;;4392576;32;20127;-67
2023/05/24 03:10:26;;;;;;;1.08;0.88;;;10.90;99.90;;;;;;4388201;32;20099;-68
2023/05/24 03:12:52;;;;;;;0.40;0.40;;;11.00;99.90;;;;;;4389440;32;20070;-68
2023/05/24 03:15:17;;;;;;;0.40;0.40;;;11.10;99.90;;;;;;4390638;32;20141;-68
2023/05/24 03:17:43;;;;;;;14.57;0.68;;;11.10;99.90;;;;;;4389559;32;20160;-68
2023/05/24 03:20:10;;;;;;;1.60;0.85;;;11.00;99.90;;;;;;4388491;32;20118;-68
2023/05/24 03:22:35;;;;;;;1.65;1.48;;;10.90;99.90;;;;;;4390999;32;20102;-68
2023/05/24 03:25:01;;;;;;;0.62;0.62;;;10.90;99.90;;;;;;4392902;32;20315;-66
2023/05/24 03:27:26;;;;;;;0.80;0.80;;;10.90;99.90;;;;;;4393441;32;20061;-66
2023/05/24 03:29:52;;;;;;;0.30;0.30;;;10.90;99.90;;;;;;4388300;32;20073;-68
2023/05/24 03:32:17;;;;;;;0.40;0.40;;;11.00;99.90;;;;;;4374939;32;20113;-67
2023/05/24 03:34:43;;;;;;;0.55;0.55;;;11.00;99.90;;;;;;4388835;32;20059;-66
2023/05/24 03:37:09;;;;;;;0.50;0.50;;;11.10;99.90;;;;;;4389810;32;20066;-68
2023/05/24 03:39:34;;;;;;;4.18;1.77;;;11.10;99.90;;;;;;4387898;32;20102;-67
2023/05/24 03:42:00;;;;;;;0.40;0.40;;;11.10;99.90;;;;;;4391044;32;20079;-68
2023/05/24 03:44:25;;;;;;;0.40;0.40;;;11.10;99.90;;;;;;4391240;32;20502;-68
2023/05/24 03:46:51;;;;;;;1.50;1.00;;;11.00;99.90;;;;;;4385919;32;20073;-67
2023/05/24 03:49:16;;;;;;;11.15;1.25;;;11.10;99.90;;;;;;4386318;32;20427;-68
2023/05/24 03:51:42;;;;;;;0.70;0.70;;;11.00;99.90;;;;;;4388299;32;20149;-68
2023/05/24 03:54:07;;;;;;;0.93;0.80;;;11.00;99.90;;;;;;4387542;32;20074;-68
2023/05/24 03:56:33;;;;;;;0.50;0.50;;;11.00;99.90;;;;;;4390433;32;20123;-68
2023/05/24 03:59:02;;;;;;;0.60;0.60;;;11.00;99.90;;;;;;4387987;32;20779;-69
2023/05/24 04:01:30;;;;;;;0.37;0.37;;;11.00;99.90;;;;;;4385255;32;20598;-68
2023/05/24 04:03:56;;;;;;;1.00;0.60;;;11.10;99.90;;;;;;4390259;32;20102;-69
2023/05/24 04:06:27;;;;;;;6.22;1.42;;;11.10;99.90;;;;;;4391304;32;20095;-68
2023/05/24 04:08:53;;;;;;;0.45;0.45;;;11.10;99.90;;;;;;4386204;32;20513;-68
2023/05/24 04:11:20;;;;;;;1.35;1.10;;;11.00;99.90;;;;;;4387975;32;20094;-68
2023/05/24 04:13:46;;;;;;;1.55;1.08;;;11.00;99.90;;;;;;4390229;32;20138;-68
2023/05/24 04:16:12;;;;;;;0.20;0.20;;;10.90;99.90;;;;;;4392497;32;20062;-69
2023/05/24 04:18:38;;;;;;;0.52;0.52;;;10.90;99.90;;;;;;4392740;32;20185;-65
2023/05/24 04:21:03;;;;;;;4.18;1.77;;;11.00;99.90;;;;;;4383560;32;20090;-66
2023/05/24 04:23:29;;;;;;;0.40;0.40;;;11.00;99.90;;;;;;4387214;32;20078;-68
2023/05/24 04:25:55;;;;;;;3.60;0.75;;;10.90;99.90;;;;;;4383002;32;20513;-66
2023/05/24 04:28:21;;;;;;;0.77;0.77;;;10.90;99.90;;;;;;4385996;32;20152;-68
2023/05/24 04:30:47;;;;;;;0.40;0.40;;;10.80;99.90;;;;;;4386547;32;20058;-65
2023/05/24 04:33:13;;;;;;;1.15;0.75;;;10.70;99.90;;;;;;4385150;32;20487;-69
2023/05/24 04:35:40;;;;;;;1.15;0.95;;;10.70;99.90;;;;;;4382494;32;20189;-67
2023/05/24 04:38:06;;;;;;;19.37;0.95;;;10.80;99.90;;;;;;4384964;32;20094;-67
2023/05/24 04:40:31;;;;;;;3.40;1.30;;;10.80;99.90;;;;;;4387637;32;20058;-68
2023/05/24 04:42:57;;;;;;;0.50;0.50;;;10.90;99.90;;;;;;4385287;32;20553;-68
2023/05/24 04:45:23;;;;;;;1.20;0.40;;;10.90;99.90;;;;;;4384854;32;20531;-69
2023/05/24 04:47:49;;;;;;;10.15;1.15;;;11.00;99.90;;;;;;4386115;32;20074;-69
2023/05/24 04:50:14;;;;;;;0.57;0.57;;;11.00;99.90;;;;;;4385898;32;20408;-67
2023/05/24 04:52:40;;;;;;;0.30;0.30;;;10.90;99.90;;;;;;4386624;32;20067;-67
2023/05/24 04:55:06;;;;;;;0.80;0.80;;;11.00;99.90;;;;;;4370347;32;20113;-68
2023/05/24 04:57:31;;;;;;;1.75;0.90;;;11.00;99.90;;;;;;4385351;32;20066;-67
2023/05/24 04:59:57;;;;;;;2.25;1.15;;;11.10;99.90;;;;;;4384630;32;20066;-67
2023/05/24 05:02:22;;;;;;;0.75;0.55;;;11.10;99.90;;;;;;4378761;32;20105;-68
2023/05/24 05:04:48;;;;;;;1.85;1.20;;;11.00;99.90;;;;;;4383232;32;20078;-66
2023/05/24 05:07:13;;;;;;;0.52;0.52;;;10.80;99.90;;;;;;4380505;32;20458;-67
2023/05/24 05:09:39;;;;;;;0.93;0.68;;;10.90;99.90;;;;;;4383352;32;20304;-66
2023/05/24 05:12:05;;;;;;;0.55;0.55;;;11.00;99.90;;;;;;4381339;32;20094;-65
2023/05/24 05:14:31;;;;;;;1.27;0.65;;;10.90;99.90;;;;;;4382020;32;20078;-67
2023/05/24 05:16:57;;;;;;;2.72;0.62;;;11.00;99.90;;;;;;4373513;32;20097;-65
2023/05/24 05:19:23;;;;;;;0.40;0.40;;;11.00;99.90;;;;;;4376728;32;20121;-66
2023/05/24 05:21:48;;;;;;;6.43;0.95;;;11.10;99.90;;;;;;4384342;32;20070;-67
2023/05/24 05:24:15;;;;;;;0.40;0.40;;;11.10;99.90;;;;;;4382506;32;20552;-67
2023/05/24 05:26:43;;;;;;;1.45;1.33;;;11.10;99.90;;;;;;4370264;32;20094;-66
2023/05/24 05:29:09;;;;;;;0.70;0.70;;;11.20;99.90;;;;;;4377779;32;20181;-65
2023/05/24 05:31:35;;;;;;;2.17;0.80;;;11.30;99.90;;;;;;4360883;32;20090;-65
2023/05/24 05:34:02;;;;;;;0.73;0.73;;;11.20;99.90;;;;;;4378351;32;20335;-67
2023/05/24 05:36:28;;;;;;;2.83;0.68;;;11.10;99.90;;;;;;4379955;32;20826;-67
2023/05/24 05:38:54;;;;;;;0.28;0.28;;;11.00;99.90;;;;;;4377126;32;20321;-69
2023/05/24 05:41:20;;;;;;;0.60;0.60;;;11.00;99.90;;;;;;4378356;32;20661;-67
2023/05/24 05:43:48;;;;;;;1.08;0.70;;;11.00;99.90;;;;;;4368597;32;20650;-67
2023/05/24 05:46:15;;;;;;;0.50;0.50;;;11.00;99.90;;;;;;4373364;32;20176;-66
2023/05/24 05:48:42;;;;;;;2.75;0.60;;;11.00;99.90;;;;;;4371307;32;20931;-66
2023/05/24 05:51:07;;;;;;;0.98;0.90;;;11.10;99.90;;;;;;4371785;32;20110;-66
2023/05/24 05:53:33;;;;;;;0.80;0.77;;;11.10;99.90;;;;;;4361503;32;20090;-66
2023/05/24 05:55:59;;;;;;;0.40;0.40;;;11.10;99.90;;;;;;4363672;32;20066;-66
2023/05/24 05:58:24;;;;;;;1.15;1.05;;;11.00;99.90;;;;;;4352634;32;21551;-67
2023/05/24 06:00:50;;;;;;;1.05;0.62;;;11.00;99.90;;;;;;4342819;32;20093;-67
2023/05/24 06:03:16;;;;;;;0.73;0.73;;;11.00;99.90;;;;;;4335084;32;21037;-66
2023/05/24 06:05:41;;;;;;;1.48;0.73;;;11.10;99.90;;;;;;4341439;32;20118;-66
2023/05/24 06:08:07;;;;;;;0.40;0.40;;;11.10;99.90;;;;;;4347383;32;20129;-67
2023/05/24 06:10:32;;;;;;;0.20;0.20;;;11.00;99.90;;;;;;4354126;32;20101;-67
2023/05/24 06:13:00;;;;;;;1.25;1.10;;;11.00;99.90;;;;;;4357310;32;20130;-67
2023/05/24 06:15:26;;;;;;;0.35;0.35;;;11.00;99.90;;;;;;4346291;32;20089;-67
2023/05/24 06:17:51;;;;;;;1.77;1.08;;;11.10;99.90;;;;;;4350720;32;21968;-66
2023/05/24 06:20:17;;;;;;;2.90;1.65;;;11.20;99.90;;;;;;4348248;32;20091;-67
2023/05/24 06:22:43;;;;;;;1.80;1.48;;;11.20;99.90;;;;;;4348491;32;21167;-67
2023/05/24 06:25:09;;;;;;;0.68;0.68;;;11.30;99.90;;;;;;4350338;32;20191;-67
2023/05/24 06:27:34;;;;;;;0.52;0.52;;;11.40;99.90;;;;;;4349858;32;20513;-67
2023/05/24 06:30:00;;;;;;;7.68;0.82;;;11.30;99.90;;;;;;4349187;32;20153;-68
2023/05/24 06:32:25;;;;;;;0.50;0.50;;;11.50;99.90;;;;;;4340911;32;20105;-67
2023/05/24 06:34:51;;;;;;;2.08;1.52;;;11.50;99.90;;;;;;4355054;32;20783;-67
2023/05/24 06:37:16;;;;;;;3.53;1.30;;;11.50;99.90;;;;;;4355273;32;20081;-67
2023/05/24 06:39:42;;;;;;;2.50;1.10;;;11.50;99.90;;;;;;4353201;32;20169;-67
2023/05/24 06:42:07;;;;;;;1.05;0.95;;;11.50;99.90;;;;;;4348975;32;20075;-67
2023/05/24 06:44:33;;;;;;;0.40;0.40;;;11.40;99.90;;;;;;4355451;32;20110;-68
2023/05/24 06:47:00;;;;;;;3.75;0.62;;;11.40;99.90;;;;;;4350022;32;20608;-67
2023/05/24 06:49:26;;;;;;;3.50;1.73;;;11.60;99.90;;;;;;4322401;32;20288;-68
2023/05/24 06:51:52;;;;;;;0.43;0.43;;;11.60;99.90;;;;;;4348233;32;20471;-67
2023/05/24 06:54:18;;;;;;;0.77;0.77;;;11.60;99.90;;;;;;4343794;32;20098;-67
2023/05/24 06:56:43;;;;;;;0.47;0.47;;;11.60;99.90;;;;;;4345136;32;20178;-67
2023/05/24 06:59:09;;;;;;;0.37;0.35;;;11.60;99.90;;;;;;4350307;32;20122;-67
2023/05/24 07:01:38;;;;;;;1.23;1.12;;;11.70;99.90;;;;;;4348639;32;20500;-66
2023/05/24 07:04:04;;;;;;;1.35;1.25;;;11.70;99.90;;;;;;4353501;32;20086;-68
2023/05/24 07:06:32;;;;;;;0.40;0.40;;;11.70;99.90;;;;;;4345419;32;20085;-68
2023/05/24 07:08:57;;;;;;;0.88;0.88;;;11.60;99.90;;;;;;4339384;32;20105;-67
2023/05/24 07:11:24;;;;;;;0.95;0.95;;;11.60;99.90;;;;;;4327930;32;20097;-68
2023/05/24 07:13:49;;;;;;;2.35;1.15;;;11.70;99.90;;;;;;4332027;32;20101;-67
2023/05/24 07:16:15;;;;;;;0.40;0.40;;;11.60;99.90;;;;;;4341302;32;20094;-68
2023/05/24 07:18:40;;;;;;;4.57;1.80;;;11.50;99.90;;;;;;4334113;32;20123;-67
2023/05/24 07:21:06;;;;;;;3.53;0.68;;;11.40;99.90;;;;;;4341436;32;21077;-69
2023/05/24 07:23:32;;;;;;;1.48;1.30;;;11.50;99.90;;;;;;4353559;32;20876;-67
2023/05/24 07:25:58;;;;;;;10.75;1.02;;;11.60;99.90;;;;;;4347960;32;20451;-68
2023/05/24 07:28:23;;;;;;;2.10;1.60;;;11.60;99.90;;;;;;4354227;32;20395;-67
2023/05/24 07:30:49;;;;;;;6.60;0.60;;;11.70;99.90;;;;;;4350555;32;20701;-67
2023/05/24 07:33:15;;;;;;;8.98;1.37;;;11.90;99.90;;;;;;4316954;32;20385;-67
2023/05/24 07:35:41;;;;;;;4.47;1.50;;;11.90;99.90;;;;;;4343289;32;20130;-67
2023/05/24 07:38:06;;;;;;;15.30;1.60;;;11.80;99.90;;;;;;4346427;32;20604;-66
2023/05/24 07:40:32;;;;;;;3.50;0.80;;;11.90;99.90;;;;;;4359300;32;20152;-67
2023/05/24 07:42:57;;;;;;;0.80;0.80;;;11.90;99.90;;;;;;4364626;32;20487;-67
2023/05/24 07:45:23;;;;;;;0.45;0.45;;;11.90;99.90;;;;;;4363240;32;20850;-66
2023/05/24 07:47:50;;;;;;;0.40;0.40;;;11.90;99.90;;;;;;4329583;32;20272;-67
2023/05/24 07:50:16;;;;;;;1.85;0.88;;;12.00;99.90;;;;;;4344888;32;20628;-67
2023/05/24 07:52:41;;;;;;;0.40;0.40;;;11.90;99.90;;;;;;4332871;32;21257;-66
2023/05/24 07:55:07;;;;;;;2.72;0.90;;;11.80;99.90;;;;;;4327145;32;20094;-67
2023/05/24 07:57:33;;;;;;;0.30;0.30;;;11.70;99.90;;;;;;4337737;32;20113;-66
2023/05/24 07:59:58;;;;;;;0.47;0.47;;;11.70;99.90;;;;;;4331980;32;20137;-67
2023/05/24 08:02:24;;;;;;;6.90;2.37;;;11.70;99.90;;;;;;4324804;32;20618;-66
2023/05/24 08:04:50;;;;;;;4.15;1.25;;;11.80;99.90;;;;;;4338307;32;20090;-66
2023/05/24 08:07:16;;;;;;;1.17;0.90;;;11.90;99.90;;;;;;4343393;32;20547;-67
2023/05/24 08:09:42;;;;;;;1.17;1.02;;;12.00;99.90;;;;;;4338356;32;20458;-67
2023/05/24 08:12:08;;;;;;;6.18;0.98;;;12.10;99.90;;;;;;4336206;32;20471;-67
2023/05/24 08:14:33;;;;;;;0.80;0.80;;;12.10;99.90;;;;;;4338948;32;20098;-67
2023/05/24 08:17:00;;;;;;;1.85;1.62;;;12.10;99.90;;;;;;4322514;32;20093;-66
2023/05/24 08:19:26;;;;;;;0.57;0.57;;;12.00;99.90;;;;;;4338346;32;20079;-67
2023/05/24 08:21:56;;;;;;;0.68;0.68;;;12.10;99.90;;;;;;4335636;32;20110;-67
2023/05/24 08:24:21;;;;;;;0.47;0.47;;;12.10;99.90;;;;;;4335870;32;20090;-66
2023/05/24 08:26:47;;;;;;;0.45;0.45;;;12.20;99.90;;;;;;4342409;32;20192;-67
2023/05/24 08:29:12;;;;;;;0.60;0.60;;;12.00;99.90;;;;;;4338157;32;20109;-68
2023/05/24 08:31:38;;;;;;;2.17;1.45;;;12.00;99.90;;;;;;4338456;32;20217;-67
2023/05/24 08:34:03;;;;;;;0.60;0.60;;;12.10;99.90;;;;;;4338455;32;20845;-68
2023/05/24 08:36:31;;;;;;;3.30;0.70;;;12.20;99.90;;;;;;4320824;32;20097;-67
2023/05/24 08:38:58;;;;;;;0.45;0.45;;;12.20;99.90;;;;;;4334534;32;20132;-68
2023/05/24 08:41:24;;;;;;;10.63;0.55;;;12.30;99.90;;;;;;4319338;32;20137;-68
2023/05/24 08:43:50;;;;;;;1.58;0.70;;;12.20;99.90;;;;;;4347167;32;21566;-66
2023/05/24 08:46:17;;;;;;;6.97;1.73;;;12.20;99.90;;;;;;4333844;32;20180;-67
2023/05/24 08:48:45;;;;;;;0.60;0.45;;;12.20;99.90;;;;;;4343125;32;20101;-65
2023/05/24 08:51:14;;;;;;;28.58;3.58;;;12.20;99.90;;;;;;4335179;32;20106;-67
2023/05/24 08:53:41;;;;;;;1.25;0.65;;;12.10;99.90;;;;;;4340174;32;20202;-67
2023/05/24 08:56:09;;;;;;;0.98;0.88;;;12.10;99.90;;;;;;4347552;32;20101;-67
2023/05/24 08:58:37;;;;;;;2.90;1.90;;;12.10;99.90;;;;;;4348222;32;20205;-66
2023/05/24 09:01:03;;;;;;;0.30;0.30;;;12.20;99.90;;;;;;4354456;32;20105;-68
2023/05/24 09:03:29;;;;;;;2.47;1.42;;;12.10;99.90;;;;;;4350037;32;20133;-69
2023/05/24 09:05:55;;;;;;;0.20;0.20;;;12.00;99.90;;;;;;4345829;32;20897;-67
2023/05/24 09:08:21;;;;;;;0.50;0.50;;;12.10;99.90;;;;;;4352065;32;20109;-68
2023/05/24 09:10:47;;;;;;;1.33;1.15;;;12.10;99.90;;;;;;4359549;32;20633;-66
2023/05/24 09:13:14;;;;;;;0.40;0.40;;;12.10;99.90;;;;;;4350075;32;20101;-67
2023/05/24 09:15:40;;;;;;;2.70;1.40;;;12.10;99.90;;;;;;4342489;32;21339;-67
2023/05/24 09:18:05;;;;;;;2.97;1.12;;;12.20;99.90;;;;;;4346751;32;20149;-67
2023/05/24 09:20:31;;;;;;;1.85;1.27;;;12.00;99.90;;;;;;4345815;32;20069;-66
2023/05/24 09:22:58;;;;;;;19.83;1.20;;;12.10;99.90;;;;;;4348855;32;20760;-64
2023/05/24 09:25:28;;;;;;;0.50;0.50;;;12.30;99.90;;;;;;4342977;32;20860;-67
2023/05/24 09:27:55;;;;;;;2.80;1.13;;;12.50;99.90;;;;;;4350439;32;20086;-66
2023/05/24 09:30:21;;;;;;;0.40;0.40;;;12.60;99.90;;;;;;4349431;32;20125;-66
2023/05/24 09:32:56;;;;;;;0.82;0.82;;;12.60;99.90;;;;;;4338634;32;21219;-65
2023/05/24 09:35:21;;;;;;;0.62;0.62;;;12.80;99.90;;;;;;4342944;32;20098;-65
2023/05/24 09:37:47;;;;;;;0.30;0.30;;;12.90;99.90;;;;;;4341504;32;20343;-66
2023/05/24 09:40:20;;;;;;;10.20;1.83;;;12.80;99.90;;;;;;4336924;32;20106;-65
2023/05/24 09:42:47;;;;;;;18.50;0.77;;;12.80;99.90;;;;;;4350554;32;20093;-66
2023/05/24 09:45:13;;;;;;;2.60;0.50;;;12.90;99.90;;;;;;4354842;32;21609;-67
2023/05/24 09:47:40;;;;;;;0.40;0.40;;;12.90;99.90;;;;;;4354838;32;20094;-66
2023/05/24 09:50:12;;;;;;;0.45;0.43;;;13.00;99.90;;;;;;4359003;32;20106;-66
2023/05/24 09:52:38;;;;;;;0.30;0.30;;;12.80;99.90;;;;;;4360737;32;20105;-66
2023/05/24 09:55:14;;;;;;;0.68;0.68;;;12.80;99.90;;;;;;4360555;32;20118;-67
2023/05/24 09:57:40;;;;;;;0.90;0.50;;;12.90;99.90;;;;;;4359122;32;20177;-65
2023/05/24 10:00:13;;;;;;;0.30;0.30;;;13.00;99.90;;;;;;4353406;32;20090;-68
2023/05/24 10:02:38;;;;;;;0.75;0.43;;;13.00;99.90;;;;;;4352806;32;20099;-68
2023/05/24 10:05:04;;;;;;;0.62;0.62;;;13.00;99.90;;;;;;4356159;32;20990;-67
2023/05/24 10:07:33;;;;;;;0.47;0.47;;;13.10;99.90;;;;;;4360074;32;20605;-65
2023/05/24 10:09:59;;;;;;;4.87;1.58;;;13.20;99.90;;;;;;4351758;32;20094;-66
2023/05/24 10:12:26;;;;;;;0.20;0.20;;;13.30;99.90;;;;;;4355199;32;20709;-66
2023/05/24 10:14:56;;;;;;;0.40;0.40;;;13.40;99.90;;;;;;4359697;32;20089;-66
2023/05/24 10:17:21;;;;;;;0.37;0.37;;;13.40;99.90;;;;;;4359635;32;20097;-67
2023/05/24 10:19:47;;;;;;;3.05;0.73;;;13.30;99.90;;;;;;4353086;32;20086;-67
2023/05/24 10:22:14;;;;;;;24.67;0.95;;;13.30;99.90;;;;;;4375310;32;20098;-67
2023/05/24 10:24:45;;;;;;;4.62;0.40;;;13.20;99.90;;;;;;4365707;32;20177;-65
2023/05/24 10:27:16;;;;;;;0.47;0.47;;;13.30;99.90;;;;;;4379492;32;20163;-66
2023/05/24 10:30:16;;;;;;;7.40;0.62;;;13.40;99.90;;;;;;4362237;32;20086;-67
2023/05/24 10:32:44;;;;;;;2.33;0.40;;;13.50;99.90;;;;;;4357168;32;20875;-66
2023/05/24 10:35:11;;;;;;;0.85;0.60;;;13.40;99.90;;;;;;4369018;32;20097;-66
2023/05/24 10:37:37;;;;;;;0.30;0.30;;;13.20;99.90;;;;;;4367297;32;20093;-66
2023/05/24 10:40:05;;;;;;;1.62;0.62;;;13.20;99.90;;;;;;4360656;32;20130;-66
2023/05/24 10:42:31;;;;;;;1.45;0.60;;;13.00;99.90;;;;;;4364534;32;20833;-65
2023/05/24 10:44:56;;;;;;;0.55;0.40;;;13.00;99.90;;;;;;4352772;32;20095;-67
2023/05/24 10:47:27;;;;;;;0.30;0.30;;;13.10;99.90;;;;;;4361831;32;20106;-64
2023/05/24 10:49:58;;;;;;;0.30;0.30;;;13.10;99.90;;;;;;4367202;32;20556;-66
2023/05/24 10:52:40;;;;;;;1.90;1.02;;;13.10;99.90;;;;;;4360552;32;21248;-68
2023/05/24 10:55:08;;;;;;;0.40;0.40;;;13.20;99.90;;;;;;4346945;32;20105;-66
2023/05/24 10:57:34;;;;;;;0.52;0.52;;;13.20;99.90;;;;;;4351036;32;20179;-68
2023/05/24 11:00:24;;;;;;;0.65;0.65;;;13.40;99.90;;;;;;4360611;32;20125;-66
2023/05/24 11:02:57;;;;;;;0.30;0.30;;;13.50;99.90;;;;;;4350068;32;20081;-67
2023/05/24 11:05:23;;;;;;;2.08;0.80;;;13.60;99.90;;;;;;4363123;32;20173;-69
2023/05/24 11:07:48;;;;;;;0.60;0.60;;;13.70;99.90;;;;;;4359811;32;20109;-67
2023/05/24 11:10:15;;;;;;;0.60;0.60;;;13.80;99.90;;;;;;4367393;32;20398;-69
2023/05/24 11:12:43;;;;;;;14.00;0.88;;;14.00;99.90;;;;;;4362042;32;20151;-68
2023/05/24 11:15:10;;;;;;;0.40;0.40;;;14.10;99.90;;;;;;4363305;32;20095;-67
2023/05/24 11:18:12;;;;;;;0.60;0.60;;;14.40;99.90;;;;;;4356921;32;20538;-67
2023/05/24 11:20:38;;;;;;;2.60;0.85;;;14.70;99.90;;;;;;4354747;32;20074;-67
2023/05/24 11:23:05;;;;;;;0.50;0.50;;;14.80;99.90;;;;;;4364296;32;20074;-68
2023/05/24 11:25:32;;;;;;;1.95;0.93;;;14.90;99.90;;;;;;4368458;32;20443;-67
2023/05/24 11:27:59;;;;;;;4.75;1.08;;;14.70;99.90;;;;;;4348921;32;20083;-67
2023/05/24 11:30:25;;;;;;;0.40;0.40;;;14.50;99.90;;;;;;4364686;32;20145;-66
2023/05/24 11:32:51;;;;;;;0.95;0.50;;;14.40;99.90;;;;;;4364733;32;20300;-67
2023/05/24 11:35:18;;;;;;;0.40;0.40;;;14.30;99.90;;;;;;4364521;32;20062;-65
2023/05/24 11:37:44;;;;;;;0.30;0.30;;;14.30;99.90;;;;;;4358682;32;20624;-66
2023/05/24 11:40:10;;;;;;;0.55;0.55;;;14.20;99.90;;;;;;4361634;32;20090;-65
2023/05/24 11:42:37;;;;;;;0.30;0.30;;;14.00;99.90;;;;;;4354765;32;20589;-65
2023/05/24 11:45:03;;;;;;;0.30;0.30;;;14.10;99.90;;;;;;4337550;32;109973;-67
2023/05/24 11:47:29;;;;;;;0.55;0.52;;;14.10;99.90;;;;;;4345399;32;20143;-68
2023/05/24 11:49:55;;;;;;;0.65;0.40;;;13.90;99.90;;;;;;4361754;32;20144;-66
2023/05/24 11:52:21;;;;;;;0.40;0.40;;;13.90;99.90;;;;;;4361802;32;20159;-68
2023/05/24 11:54:47;;;;;;;0.30;0.30;;;13.90;99.90;;;;;;4351395;32;20098;-65
2023/05/24 11:57:13;;;;;;;3.70;1.37;;;14.00;99.90;;;;;;4359069;32;20635;-67
2023/05/24 11:59:40;;;;;;;0.57;0.52;;;14.10;99.90;;;;;;4360171;32;20138;-70
2023/05/24 12:02:07;;;;;;;0.70;0.70;;;14.30;99.90;;;;;;4368754;32;20202;-68
2023/05/24 12:04:33;;;;;;;0.43;0.43;;;14.40;99.90;;;;;;4366440;32;20239;-67
2023/05/24 12:07:00;;;;;;;1.23;0.90;;;14.60;99.90;;;;;;4365803;32;20058;-68
2023/05/24 12:09:26;;;;;;;0.30;0.30;;;14.70;99.90;;;;;;4368263;32;20558;-67
2023/05/24 12:11:53;;;;;;;15.20;0.50;;;14.90;99.90;;;;;;4368063;32;21402;-67
2023/05/24 12:14:25;;;;;;;0.30;0.30;;;15.10;99.90;;;;;;4362547;32;20175;-68
2023/05/24 12:16:55;;;;;;;0.40;0.40;;;14.90;99.90;;;;;;4360923;32;20107;-67
2023/05/24 12:19:24;;;;;;;3.30;0.80;;;14.80;99.90;;;;;;4367129;32;20086;-68
2023/05/24 12:21:54;;;;;;;1.27;0.95;;;14.80;99.90;;;;;;4361749;32;20074;-68
2023/05/24 12:24:21;;;;;;;0.37;0.37;;;14.70;99.90;;;;;;4359298;32;20177;-67
2023/05/24 12:26:47;;;;;;;0.30;0.30;;;14.90;99.90;;;;;;4352328;32;20101;-68
2023/05/24 12:29:13;;;;;;;0.50;0.50;;;14.80;99.90;;;;;;4335989;32;21823;-67
2023/05/24 12:31:41;;;;;;;0.40;0.40;;;14.80;99.90;;;;;;4342182;32;21620;-67
2023/05/24 12:34:12;;;;;;;0.60;0.60;;;14.80;99.90;;;;;;4344071;32;20520;-66
2023/05/24 12:36:37;;;;;;;1.45;0.88;;;14.60;99.90;;;;;;4360125;32;20122;-68
2023/05/24 12:39:21;;;;;;;0.40;0.40;;;14.60;99.90;;;;;;4367127;32;20864;-67
2023/05/24 12:41:51;;;;;;;0.47;0.47;;;14.50;99.90;;;;;;4369033;32;20097;-68
2023/05/24 12:44:22;;;;;;;0.40;0.40;;;14.50;99.90;;;;;;4355283;32;20151;-67
2023/05/24 12:46:47;;;;;;;6.97;0.70;;;14.40;99.90;;;;;;4369303;32;20309;-67